sim
Sign-in with your pilot id or email,
or register
Callsign
Passwort

Schedule Details

Flight Number: OEO3209
Departure: Cork Airport (EICK) at 14:35
Arrival: Munich Airport (EDDM) at 17:00

Weather Information
Getting current METAR information for EICK 231100Z 29007KT 250V350 9999 FEW015 SCT017 12/07 Q1003 NOSIG
Getting current METAR information for EDDM 231120Z 23007KT 9999 FEW007 BKN033 16/15 Q1010 NOSIG

Schedule Frequency

Route Map